Time;durP1;ratioP1;P1;durP2;ratioP2;P2;SDS_P1;SDS_P2;PMS_P1;PMS_P2;Temp;Humidity;BMP_temperature;BMP_pressure;BME280_temperature;BME280_humidity;BME280_pressure;Samples;Min_cycle;Max_cycle;Signal;HPM_P1;HPM_P2
2022/08/02 00:00:13;;;;;;;2.50;1.13;;;;;;;21.08;100.00;101070.81;2056161;28;20256;-64
2022/08/02 00:01:13;;;;;;;4.73;1.10;;;;;;;20.81;100.00;101043.03;2048093;28;20448;-64
2022/08/02 00:02:14;;;;;;;2.67;1.10;;;;;;;21.01;100.00;101068.44;2055624;28;20414;-65
2022/08/02 00:03:14;;;;;;;1.30;1.00;;;;;;;21.01;100.00;101074.06;2057673;28;20572;-64
2022/08/02 00:04:15;;;;;;;1.93;1.10;;;;;;;20.62;100.00;101007.97;2065054;28;20253;-65
2022/08/02 00:05:15;;;;;;;2.00;1.00;;;;;;;21.00;100.00;101077.38;2056515;28;20653;-64
2022/08/02 00:06:16;;;;;;;1.47;0.90;;;;;;;20.97;100.00;101072.72;2063369;28;20222;-65
2022/08/02 00:07:17;;;;;;;2.87;1.33;;;;;;;20.88;100.00;101061.56;2064440;28;20181;-64
2022/08/02 00:08:17;;;;;;;2.77;1.13;;;;;;;20.97;100.00;101075.53;2064682;28;20200;-64
2022/08/02 00:09:18;;;;;;;2.80;1.20;;;;;;;20.93;100.00;101075.75;2064548;28;20205;-64
2022/08/02 00:10:18;;;;;;;4.53;1.10;;;;;;;20.71;100.00;101049.28;2055970;28;20246;-64
2022/08/02 00:11:19;;;;;;;1.73;1.10;;;;;;;20.95;100.00;101078.06;2056132;28;20183;-64
2022/08/02 00:12:19;;;;;;;4.27;1.00;;;;;;;20.92;100.00;101071.38;2057007;28;20254;-65
2022/08/02 00:13:20;;;;;;;1.77;1.20;;;;;;;20.53;100.00;101001.69;2064662;28;20193;-64
2022/08/02 00:14:20;;;;;;;3.30;1.13;;;;;;;21.01;100.00;101082.50;2064058;28;20194;-65
2022/08/02 00:15:21;;;;;;;2.93;1.33;;;;;;;20.34;100.00;100983.50;2064447;28;20190;-65
2022/08/02 00:16:22;;;;;;;2.37;1.20;;;;;;;20.60;100.00;101006.91;2060769;28;20191;-65
2022/08/02 00:17:22;;;;;;;3.57;1.23;;;;;;;21.01;100.00;101078.91;2059458;28;20189;-65
2022/08/02 00:18:23;;;;;;;3.47;1.50;;;;;;;21.03;100.00;101076.38;2063057;28;20171;-65
2022/08/02 00:19:23;;;;;;;3.53;1.67;;;;;;;21.02;100.00;101077.63;2056697;28;20266;-65
2022/08/02 00:20:24;;;;;;;3.53;1.30;;;;;;;20.96;100.00;101080.41;2062796;28;20186;-65
2022/08/02 00:21:24;;;;;;;2.40;1.10;;;;;;;20.90;100.00;101079.56;2063858;28;20212;-65
2022/08/02 00:22:25;;;;;;;2.13;1.30;;;;;;;20.94;100.00;101077.28;2058930;28;20269;-64
2022/08/02 00:23:25;;;;;;;1.90;1.30;;;;;;;20.97;100.00;101079.13;2063639;28;20292;-64
2022/08/02 00:24:26;;;;;;;1.70;1.03;;;;;;;21.00;100.00;101080.97;2059989;28;20209;-65
2022/08/02 00:25:26;;;;;;;2.27;1.20;;;;;;;21.00;100.00;101083.78;2056744;28;20191;-64
2022/08/02 00:26:27;;;;;;;3.93;1.30;;;;;;;21.02;100.00;101072.78;2058053;28;20179;-64
2022/08/02 00:27:27;;;;;;;3.00;1.47;;;;;;;20.97;100.00;101067.84;2064498;28;20221;-64
2022/08/02 00:28:29;;;;;;;2.90;1.00;;;;;;;20.99;100.00;101070.19;2065024;28;20178;-65
2022/08/02 00:29:30;;;;;;;2.73;1.40;;;;;;;20.97;100.00;101076.31;2056866;28;20198;-65
2022/08/02 00:30:30;;;;;;;1.97;1.30;;;;;;;20.60;100.00;101018.94;2063209;28;20457;-64
2022/08/02 00:31:31;;;;;;;2.53;1.20;;;;;;;20.93;100.00;101075.75;2064378;28;20441;-65
2022/08/02 00:32:32;;;;;;;2.53;1.13;;;;;;;20.91;100.00;101069.03;2060677;28;20183;-64
2022/08/02 00:33:32;;;;;;;2.53;1.07;;;;;;;20.50;100.00;101013.94;2047828;28;20677;-64
2022/08/02 00:34:33;;;;;;;3.50;1.20;;;;;;;20.82;100.00;101078.38;2047707;28;20203;-65
2022/08/02 00:35:34;;;;;;;3.47;1.07;;;;;;;20.57;100.00;101041.69;2063754;28;20182;-64
2022/08/02 00:36:34;;;;;;;3.73;1.30;;;;;;;20.30;100.00;100997.00;2064416;28;20262;-64
2022/08/02 00:37:38;;;;;;;3.80;1.10;;;;;;;20.80;100.00;101075.28;2064322;28;20441;-64
2022/08/02 00:38:39;;;;;;;4.73;1.37;;;;;;;20.51;100.00;101029.56;2057567;28;20609;-64
2022/08/02 00:39:41;;;;;;;4.37;1.20;;;;;;;20.44;100.00;101025.13;2068429;28;20445;-64
2022/08/02 00:40:51;;;;;;;2.27;1.20;;;;;;;20.83;100.00;101067.91;2062355;28;20189;-65
2022/08/02 00:41:52;;;;;;;3.07;1.27;;;;;;;20.85;100.00;101076.63;2060247;28;20472;-65
2022/08/02 00:43:03;;;;;;;4.97;1.27;;;;;;;20.82;100.00;101083.25;2060186;28;20449;-64
2022/08/02 00:44:03;;;;;;;2.83;1.33;;;;;;;20.79;100.00;101070.94;2056423;28;20687;-64
2022/08/02 00:45:05;;;;;;;1.93;1.00;;;;;;;20.80;100.00;101075.28;2049742;28;20437;-64
2022/08/02 00:46:05;;;;;;;2.20;1.13;;;;;;;20.72;100.00;101064.94;2056025;28;20186;-65
2022/08/02 00:47:05;;;;;;;1.87;1.10;;;;;;;20.73;100.00;101067.25;2056620;28;20417;-64
2022/08/02 00:48:08;;;;;;;2.83;1.30;;;;;;;20.69;100.00;101074.34;2056957;28;20187;-64
2022/08/02 00:49:10;;;;;;;2.07;1.40;;;;;;;20.25;100.00;101003.31;2047661;28;20691;-64
2022/08/02 00:50:10;;;;;;;1.53;1.23;;;;;;;20.69;100.00;101066.69;2048214;28;20450;-64
2022/08/02 00:51:11;;;;;;;3.27;1.60;;;;;;;20.46;100.00;101044.34;2056530;28;21011;-64
2022/08/02 00:52:12;;;;;;;2.70;1.37;;;;;;;20.71;100.00;101071.81;2059908;28;20204;-64
2022/08/02 00:53:12;;;;;;;3.90;1.17;;;;;;;20.69;100.00;101068.72;2064176;28;20178;-65
2022/08/02 00:54:13;;;;;;;3.20;1.10;;;;;;;20.46;100.00;101031.03;2063609;28;20186;-65
2022/08/02 00:55:14;;;;;;;2.87;1.37;;;;;;;20.57;100.00;101050.13;2056366;28;20559;-65
2022/08/02 00:56:14;;;;;;;1.83;1.23;;;;;;;20.50;100.00;101039.25;2063941;28;20633;-65
2022/08/02 00:57:15;;;;;;;1.90;1.30;;;;;;;20.25;100.00;101000.50;2064206;28;20276;-65
2022/08/02 00:58:16;;;;;;;2.33;1.10;;;;;;;20.69;100.00;101072.34;2064434;28;20275;-64
2022/08/02 00:59:16;;;;;;;2.60;1.20;;;;;;;20.66;100.00;101078.16;2064310;28;20197;-64
2022/08/02 01:00:17;;;;;;;1.50;1.20;;;;;;;20.45;100.00;101054.03;2053204;28;20225;-65
2022/08/02 01:01:18;;;;;;;3.77;1.43;;;;;;;20.34;100.00;101018.06;2049618;28;20188;-65
2022/08/02 01:02:18;;;;;;;7.20;1.57;;;;;;;20.06;100.00;100985.88;2055960;28;20185;-65
2022/08/02 01:03:19;;;;;;;2.27;1.30;;;;;;;20.68;100.00;101075.63;2056124;28;20594;-64
2022/08/02 01:04:19;;;;;;;2.93;1.40;;;;;;;20.60;100.00;101064.00;2064349;28;20260;-64
2022/08/02 01:05:20;;;;;;;2.20;1.40;;;;;;;20.68;100.00;101070.00;2057960;28;20281;-64
2022/08/02 01:06:20;;;;;;;2.97;1.70;;;;;;;20.14;100.00;101005.97;2056913;28;20204;-64
2022/08/02 01:07:21;;;;;;;2.73;1.40;;;;;;;20.60;100.00;101069.63;2056388;28;20202;-64
2022/08/02 01:08:21;;;;;;;1.90;1.30;;;;;;;20.59;100.00;101078.56;2060880;28;20215;-65
2022/08/02 01:09:22;;;;;;;2.23;1.10;;;;;;;20.41;100.00;101064.75;2055779;28;20274;-65
2022/08/02 01:10:23;;;;;;;2.87;1.50;;;;;;;20.16;100.00;101009.09;2055647;28;20236;-65
2022/08/02 01:11:23;;;;;;;4.07;1.30;;;;;;;20.57;100.00;101070.59;2064795;28;20265;-64
2022/08/02 01:12:24;;;;;;;2.23;1.27;;;;;;;20.55;100.00;101075.16;2064546;28;20445;-64
2022/08/02 01:13:25;;;;;;;5.30;1.40;;;;;;;20.54;100.00;101079.25;2064239;28;20193;-65
2022/08/02 01:14:26;;;;;;;3.30;1.50;;;;;;;20.52;100.00;101082.56;2059233;28;20666;-64
2022/08/02 01:15:27;;;;;;;2.43;1.30;;;;;;;20.46;100.00;101084.53;2056357;28;20921;-64
2022/08/02 01:16:32;;;;;;;3.57;1.30;;;;;;;20.16;100.00;101049.25;2056296;28;20209;-64
2022/08/02 01:18:04;;;;;;;2.53;1.30;;;;;;;20.42;100.00;101088.81;2056160;28;20425;-64
2022/08/02 01:19:23;;;;;;;3.60;1.70;;;;;;;19.81;100.00;101005.44;2056640;28;20437;-65
2022/08/02 01:20:40;;;;;;;4.60;1.37;;;;;;;20.32;100.00;101084.56;2057773;28;20456;-65
2022/08/02 01:21:52;;;;;;;2.83;1.40;;;;;;;20.19;100.00;101079.25;2065738;28;20498;-64
2022/08/02 01:23:14;;;;;;;3.53;1.63;;;;;;;20.14;100.00;101079.16;2049706;29;20466;-64
2022/08/02 01:24:56;;;;;;;1.80;1.37;;;;;;;19.91;100.00;101047.03;2052697;28;20441;-64
2022/08/02 01:25:57;;;;;;;3.23;1.50;;;;;;;20.15;100.00;101075.06;2062212;28;20478;-65
2022/08/02 01:27:10;;;;;;;3.50;1.40;;;;;;;20.13;100.00;101081.19;2069056;28;20831;-64
2022/08/02 01:28:39;;;;;;;2.63;1.40;;;;;;;20.13;100.00;101084.00;2070338;28;20317;-63
2022/08/02 01:29:48;;;;;;;2.60;1.50;;;;;;;20.13;100.00;101086.03;2065743;28;20480;-64
2022/08/02 01:31:06;;;;;;;2.30;1.40;;;;;;;20.16;100.00;101085.84;2056899;28;20468;-64
2022/08/02 01:32:16;;;;;;;3.53;1.70;;;;;;;20.18;100.00;101088.16;2053378;28;20541;-64
2022/08/02 01:33:19;;;;;;;3.50;1.30;;;;;;;19.64;100.00;100998.75;2064118;28;20535;-64
2022/08/02 01:34:44;;;;;;;3.13;1.67;;;;;;;20.21;100.00;101082.34;2051055;28;20442;-64
2022/08/02 01:35:54;;;;;;;4.83;1.50;;;;;;;19.93;100.00;101035.28;2053097;28;20926;-64
2022/08/02 01:37:01;;;;;;;3.53;1.40;;;;;;;19.77;100.00;101010.47;2065965;28;20441;-64
2022/08/02 01:38:19;;;;;;;2.40;1.60;;;;;;;20.25;100.00;101079.31;2065468;28;20457;-63
2022/08/02 01:39:24;;;;;;;3.13;1.40;;;;;;;20.27;100.00;101083.19;2058158;28;20422;-64
2022/08/02 01:40:31;;;;;;;3.33;1.53;;;;;;;20.26;100.00;101084.47;2066073;28;20425;-64
2022/08/02 01:41:33;;;;;;;2.93;1.70;;;;;;;19.79;100.00;101005.13;2058017;28;20898;-64
2022/08/02 01:42:36;;;;;;;4.73;2.00;;;;;;;20.13;100.00;101055.09;2057982;28;20460;-64
2022/08/02 01:43:41;;;;;;;5.53;2.00;;;;;;;20.30;100.00;101087.06;2057533;28;20445;-64
2022/08/02 01:44:43;;;;;;;5.37;1.90;;;;;;;20.35;100.00;101089.19;2063562;28;20461;-63
2022/08/02 01:45:44;;;;;;;7.40;1.83;;;;;;;20.33;100.00;101080.47;2071027;28;20457;-63
2022/08/02 01:46:47;;;;;;;7.00;1.73;;;;;;;20.42;100.00;101080.38;2065258;28;20451;-63
2022/08/02 01:47:50;;;;;;;3.50;1.80;;;;;;;20.40;100.00;101089.28;2057801;28;20531;-64
2022/08/02 01:48:54;;;;;;;2.80;1.77;;;;;;;20.23;100.00;101056.53;2058747;28;20520;-64
2022/08/02 01:49:57;;;;;;;3.17;1.60;;;;;;;20.10;100.00;101045.59;2065549;28;20431;-63
2022/08/02 01:51:00;;;;;;;4.17;1.60;;;;;;;20.43;100.00;101085.50;2065511;28;20455;-64
2022/08/02 01:52:20;;;;;;;4.10;1.77;;;;;;;20.45;100.00;101082.19;2065905;28;20944;-63
2022/08/02 01:53:24;;;;;;;4.23;1.60;;;;;;;20.45;100.00;101087.81;2065257;28;20850;-64
2022/08/02 01:54:28;;;;;;;6.30;1.63;;;;;;;20.27;100.00;101062.72;2064709;28;20888;-64
2022/08/02 01:55:33;;;;;;;6.60;1.60;;;;;;;20.47;100.00;101088.13;2057965;28;20524;-63
2022/08/02 01:56:34;;;;;;;3.37;1.30;;;;;;;20.49;100.00;101086.38;2057821;28;20422;-63
2022/08/02 01:57:51;;;;;;;3.33;1.40;;;;;;;20.47;100.00;101079.69;2057334;28;20454;-63
2022/08/02 01:58:53;;;;;;;3.10;1.50;;;;;;;20.44;100.00;101084.25;2058035;28;20425;-64
2022/08/02 01:59:59;;;;;;;2.53;1.60;;;;;;;20.46;100.00;101092.22;2064916;28;20529;-63
2022/08/02 02:01:00;;;;;;;2.83;1.37;;;;;;;20.46;100.00;101086.56;2058558;28;20531;-63
2022/08/02 02:02:01;;;;;;;4.10;1.60;;;;;;;20.46;100.00;101090.16;2057392;28;20476;-64
2022/08/02 02:03:05;;;;;;;2.80;1.50;;;;;;;20.46;100.00;101086.56;2062547;28;20443;-63
2022/08/02 02:04:08;;;;;;;7.10;1.93;;;;;;;20.19;100.00;101058.75;2061182;28;20509;-63
2022/08/02 02:05:19;;;;;;;5.47;1.90;;;;;;;20.42;100.00;101092.38;2061063;28;20466;-64
2022/08/02 02:06:21;;;;;;;6.30;2.20;;;;;;;20.38;100.00;101088.22;2065474;28;20530;-64
2022/08/02 02:07:22;;;;;;;6.80;2.23;;;;;;;19.78;100.00;101000.78;2065234;28;20952;-65
2022/08/02 02:08:30;;;;;;;6.60;2.60;;;;;;;20.20;100.00;101049.06;2065727;28;20860;-63
2022/08/02 02:09:36;;;;;;;6.77;2.07;;;;;;;20.44;100.00;101095.50;2065614;28;20554;-64
2022/08/02 02:10:38;;;;;;;5.07;1.97;;;;;;;20.38;100.00;101083.41;2066871;28;20794;-64
2022/08/02 02:11:43;;;;;;;4.00;2.00;;;;;;;20.42;100.00;101089.56;2072573;28;20411;-63
2022/08/02 02:12:48;;;;;;;3.30;1.97;;;;;;;20.26;100.00;101076.03;2057858;28;20453;-64
2022/08/02 02:13:49;;;;;;;5.37;2.00;;;;;;;20.43;100.00;101098.81;2057719;28;20421;-64
2022/08/02 02:14:51;;;;;;;3.50;1.77;;;;;;;20.41;100.00;101095.72;2060982;28;20453;-64
2022/08/02 02:15:53;;;;;;;7.47;2.30;;;;;;;20.42;100.00;101097.25;2058958;28;20433;-65
2022/08/02 02:16:55;;;;;;;3.47;2.27;;;;;;;20.38;100.00;101096.69;2062970;28;20885;-63
2022/08/02 02:17:57;;;;;;;6.13;1.80;;;;;;;20.39;100.00;101095.41;2065578;28;20835;-64
2022/08/02 02:19:01;;;;;;;6.13;2.10;;;;;;;20.03;100.00;101047.97;2062145;28;20498;-64
2022/08/02 02:20:04;;;;;;;5.37;2.57;;;;;;;20.21;100.00;101092.84;2060104;28;20429;-64
2022/08/02 02:21:04;;;;;;;6.47;2.20;;;;;;;20.18;100.00;101099.44;2063624;28;20454;-63
2022/08/02 02:22:05;;;;;;;4.67;2.30;;;;;;;19.76;100.00;101018.13;2057528;28;21006;-64
2022/08/02 02:23:05;;;;;;;4.70;2.10;;;;;;;20.22;100.00;101094.38;2049063;29;20197;-64
2022/08/02 02:24:06;;;;;;;5.73;2.07;;;;;;;19.91;100.00;101043.44;2049143;28;20289;-64
2022/08/02 02:25:12;;;;;;;5.27;1.93;;;;;;;19.77;100.00;101022.50;2063485;28;20186;-63
2022/08/02 02:26:15;;;;;;;5.10;1.80;;;;;;;20.24;100.00;101101.06;2059874;28;20201;-64
2022/08/02 02:27:16;;;;;;;2.73;1.93;;;;;;;19.93;100.00;101052.16;2062516;28;20459;-64
2022/08/02 02:28:29;;;;;;;4.87;1.80;;;;;;;20.20;100.00;101103.31;2061392;28;20509;-64
2022/08/02 02:29:31;;;;;;;4.47;1.57;;;;;;;20.22;100.00;101106.41;2061979;28;20439;-63
2022/08/02 02:30:34;;;;;;;5.03;1.57;;;;;;;20.22;100.00;101097.94;2064862;28;20470;-64
2022/08/02 02:31:38;;;;;;;3.53;1.57;;;;;;;20.23;100.00;101107.19;2065305;28;20415;-64
2022/08/02 02:32:40;;;;;;;2.90;1.90;;;;;;;19.72;100.00;101028.81;2063610;28;20509;-64
2022/08/02 02:34:09;;;;;;;4.47;1.80;;;;;;;20.20;100.00;101108.13;2057021;28;20427;-64
2022/08/02 02:35:12;;;;;;;2.20;1.70;;;;;;;19.80;100.00;101044.03;2051046;28;20477;-63
2022/08/02 02:36:15;;;;;;;2.30;1.70;;;;;;;20.21;100.00;101098.47;2057559;28;20825;-64
2022/08/02 02:37:21;;;;;;;2.07;1.50;;;;;;;20.19;100.00;101104.56;2057026;28;20426;-64
2022/08/02 02:38:23;;;;;;;4.00;1.57;;;;;;;19.94;100.00;101053.72;2058762;28;20425;-63
2022/08/02 02:39:27;;;;;;;4.77;1.57;;;;;;;19.99;100.00;101073.50;2065629;28;20829;-63
2022/08/02 02:40:29;;;;;;;3.83;1.73;;;;;;;20.07;100.00;101082.34;2065679;28;20522;-64
2022/08/02 02:41:29;;;;;;;4.10;1.87;;;;;;;20.19;100.00;101115.81;2072942;28;20443;-63
2022/08/02 02:42:32;;;;;;;4.73;1.47;;;;;;;20.18;100.00;101107.88;2066630;28;20455;-63
2022/08/02 02:43:36;;;;;;;3.13;1.50;;;;;;;19.77;100.00;101045.00;2065210;28;20281;-64
2022/08/02 02:44:39;;;;;;;3.70;1.63;;;;;;;20.12;100.00;101092.94;2060250;28;20434;-64
2022/08/02 02:45:40;;;;;;;3.37;1.77;;;;;;;19.75;100.00;101043.94;2061721;28;20472;-64
2022/08/02 02:46:42;;;;;;;3.67;1.73;;;;;;;19.90;100.00;101067.22;2061921;28;20459;-63
2022/08/02 02:47:45;;;;;;;2.53;1.40;;;;;;;20.23;100.00;101110.78;2050979;28;20898;-64
2022/08/02 02:48:48;;;;;;;3.73;1.53;;;;;;;20.20;100.00;101108.94;2055179;28;20425;-63
2022/08/02 02:49:51;;;;;;;4.23;1.80;;;;;;;20.22;100.00;101114.06;2056900;28;20947;-64
2022/08/02 02:50:53;;;;;;;5.80;1.50;;;;;;;20.16;100.00;101102.72;2065543;28;20421;-63
2022/08/02 02:51:55;;;;;;;2.40;1.43;;;;;;;20.09;100.00;101086.25;2057460;28;20425;-64
2022/08/02 02:52:58;;;;;;;3.23;1.60;;;;;;;19.85;100.00;101048.97;2064069;28;20542;-63
2022/08/02 02:53:59;;;;;;;3.50;1.70;;;;;;;20.30;100.00;101115.22;2065044;28;20444;-64
2022/08/02 02:55:01;;;;;;;5.07;1.90;;;;;;;20.03;100.00;101076.91;2064788;28;20446;-64
2022/08/02 02:56:03;;;;;;;5.87;1.70;;;;;;;20.34;100.00;101125.03;2064726;28;20456;-64
2022/08/02 02:57:04;;;;;;;6.50;1.73;;;;;;;20.34;100.00;101121.44;2062366;28;20485;-64
2022/08/02 02:58:05;;;;;;;5.40;1.90;;;;;;;20.24;100.00;101111.53;2063624;28;20935;-63
2022/08/02 02:59:08;;;;;;;3.47;1.73;;;;;;;20.19;100.00;101098.94;2057388;28;20810;-64
2022/08/02 03:00:11;;;;;;;5.90;1.87;;;;;;;20.25;100.00;101118.72;2057526;28;20194;-63
2022/08/02 03:01:29;;;;;;;3.53;1.60;;;;;;;20.08;100.00;101104.38;2056990;28;20434;-64
2022/08/02 03:02:30;;;;;;;5.47;1.80;;;;;;;19.87;100.00;101077.41;2057404;28;20782;-64
2022/08/02 03:03:32;;;;;;;12.27;3.37;;;;;;;20.13;100.00;101117.78;2057141;28;20450;-63
2022/08/02 03:04:34;;;;;;;17.93;3.50;;;;;;;19.33;100.00;101001.25;2063635;28;20452;-64
2022/08/02 03:05:35;;;;;;;9.87;2.50;;;;;;;20.07;100.00;101118.91;2058730;28;20543;-64
2022/08/02 03:06:36;;;;;;;11.37;2.23;;;;;;;20.04;100.00;101125.50;2061972;28;20486;-63
2022/08/02 03:07:38;;;;;;;3.67;2.00;;;;;;;19.95;100.00;101119.97;2061214;28;20192;-64
2022/08/02 03:08:39;;;;;;;6.70;2.47;;;;;;;19.96;100.00;101125.09;2063327;28;20449;-64
2022/08/02 03:09:39;;;;;;;7.40;2.40;;;;;;;19.96;100.00;101122.28;2065337;28;20511;-64
2022/08/02 03:10:42;;;;;;;8.43;2.13;;;;;;;19.89;100.00;101114.25;2065060;28;20193;-63
2022/08/02 03:11:43;;;;;;;8.90;2.00;;;;;;;19.95;100.00;101131.25;2065355;28;20272;-63
2022/08/02 03:12:44;;;;;;;4.77;2.20;;;;;;;19.74;100.00;101096.59;2065372;28;20421;-64
2022/08/02 03:13:45;;;;;;;7.07;2.03;;;;;;;19.42;100.00;101055.38;2064515;28;20648;-63
2022/08/02 03:14:45;;;;;;;9.33;2.23;;;;;;;19.30;100.00;101033.91;2058674;28;20190;-64
2022/08/02 03:15:46;;;;;;;4.50;1.80;;;;;;;19.40;100.00;101066.28;2056967;28;20198;-63
2022/08/02 03:16:49;;;;;;;7.20;1.97;;;;;;;19.88;100.00;101131.59;2060315;28;20280;-63
2022/08/02 03:17:50;;;;;;;4.97;2.03;;;;;;;19.89;100.00;101133.16;2056384;28;20633;-63
2022/08/02 03:18:50;;;;;;;5.50;2.00;;;;;;;19.54;100.00;101078.84;2058128;28;20538;-64
2022/08/02 03:19:51;;;;;;;4.20;2.03;;;;;;;19.91;100.00;101133.47;2064468;28;20200;-64
2022/08/02 03:20:51;;;;;;;6.97;1.67;;;;;;;19.82;100.00;101130.72;2057411;28;20213;-64
2022/08/02 03:21:52;;;;;;;6.17;2.17;;;;;;;19.81;100.00;101134.81;2056621;28;20215;-63
2022/08/02 03:22:52;;;;;;;4.33;1.90;;;;;;;19.78;100.00;101128.13;2056836;28;20202;-63
2022/08/02 03:23:53;;;;;;;4.63;1.97;;;;;;;19.83;100.00;101135.88;2062074;28;20216;-64
2022/08/02 03:24:53;;;;;;;7.10;2.00;;;;;;;19.84;100.00;101134.63;2060623;28;20704;-63
2022/08/02 03:25:54;;;;;;;5.73;2.20;;;;;;;19.87;100.00;101133.66;2059846;28;20210;-63
2022/08/02 03:26:54;;;;;;;5.77;2.10;;;;;;;19.11;100.00;101012.06;2064557;28;20197;-63
2022/08/02 03:27:55;;;;;;;5.33;2.10;;;;;;;19.45;100.00;101067.69;2064518;28;20189;-63
2022/08/02 03:28:55;;;;;;;5.27;1.90;;;;;;;19.95;100.00;101140.44;2057358;28;20175;-63
2022/08/02 03:29:56;;;;;;;6.97;1.97;;;;;;;20.00;100.00;101136.19;2056672;28;20581;-63
2022/08/02 03:30:57;;;;;;;6.93;2.00;;;;;;;19.64;100.00;101071.84;2056833;28;20656;-63
2022/08/02 03:31:57;;;;;;;6.90;2.17;;;;;;;19.45;100.00;101045.94;2056706;28;20193;-64
2022/08/02 03:32:58;;;;;;;7.77;2.40;;;;;;;19.97;100.00;101120.25;2057135;28;20191;-63
2022/08/02 03:34:01;;;;;;;5.00;1.90;;;;;;;19.80;100.00;101094.66;2058950;28;20209;-63
2022/08/02 03:35:04;;;;;;;4.17;1.80;;;;;;;20.08;100.00;101135.34;2064659;28;20196;-63
2022/08/02 03:36:15;;;;;;;4.37;1.93;;;;;;;19.97;100.00;101123.88;2063698;28;20436;-63
2022/08/02 03:37:16;;;;;;;3.67;1.83;;;;;;;20.05;100.00;101139.09;2056501;28;20460;-63
2022/08/02 03:38:18;;;;;;;3.03;1.80;;;;;;;20.04;100.00;101142.38;2056848;28;20419;-64
2022/08/02 03:39:19;;;;;;;8.30;2.40;;;;;;;19.74;100.00;101090.19;2065190;28;20934;-63
2022/08/02 03:40:20;;;;;;;5.57;1.60;;;;;;;20.11;100.00;101145.59;2064797;28;20819;-63
2022/08/02 03:41:22;;;;;;;2.50;1.63;;;;;;;19.74;100.00;101098.59;2058106;28;20246;-63
2022/08/02 03:42:25;;;;;;;5.70;1.80;;;;;;;20.10;100.00;101149.69;2061384;28;20441;-63
2022/08/02 03:43:27;;;;;;;7.40;1.87;;;;;;;20.14;100.00;101141.84;2064386;28;20503;-63
2022/08/02 03:44:29;;;;;;;10.00;2.10;;;;;;;20.11;100.00;101139.97;2060962;28;20540;-64
2022/08/02 03:45:30;;;;;;;8.63;1.90;;;;;;;20.18;100.00;101148.06;2056801;28;20469;-64
2022/08/02 03:46:32;;;;;;;6.33;1.77;;;;;;;20.20;100.00;101139.09;2058239;28;20617;-64
2022/08/02 03:47:33;;;;;;;6.40;2.07;;;;;;;19.90;100.00;101090.47;2064033;28;20876;-63
2022/08/02 03:48:36;;;;;;;9.30;2.37;;;;;;;20.16;100.00;101147.75;2057200;28;20453;-63
2022/08/02 03:49:37;;;;;;;5.90;1.63;;;;;;;20.18;100.00;101147.25;2064653;28;20301;-64
2022/08/02 03:50:39;;;;;;;6.00;1.90;;;;;;;20.21;100.00;101138.63;2064541;28;20456;-63
2022/08/02 03:51:40;;;;;;;4.33;1.70;;;;;;;20.02;100.00;101117.56;2064592;28;20527;-65
2022/08/02 03:52:42;;;;;;;5.40;1.73;;;;;;;20.09;100.00;101120.00;2064703;28;20509;-64
2022/08/02 03:53:43;;;;;;;5.00;1.87;;;;;;;20.23;100.00;101141.75;2064755;28;20198;-64
2022/08/02 03:54:44;;;;;;;5.00;2.07;;;;;;;19.84;100.00;101083.97;2061438;28;20528;-64
2022/08/02 03:55:46;;;;;;;6.67;1.60;;;;;;;20.09;100.00;101130.47;2056883;28;20434;-64
2022/08/02 03:56:46;;;;;;;6.20;2.20;;;;;;;20.29;100.00;101147.44;2054427;28;20190;-63
2022/08/02 03:57:47;;;;;;;7.80;2.10;;;;;;;19.44;100.00;101015.53;2056624;28;20577;-64
2022/08/02 03:58:47;;;;;;;6.03;2.00;;;;;;;20.33;100.00;101148.81;2056723;28;20209;-64
2022/08/02 03:59:48;;;;;;;7.13;1.80;;;;;;;20.34;100.00;101156.00;2056978;28;20569;-64
2022/08/02 04:00:50;;;;;;;3.60;1.67;;;;;;;20.09;100.00;101108.75;2047918;28;20190;-64
2022/08/02 04:01:51;;;;;;;6.27;2.20;;;;;;;20.40;100.00;101156.06;2052318;28;20213;-64
2022/08/02 04:02:51;;;;;;;8.43;1.90;;;;;;;19.96;100.00;101099.78;2062123;28;20425;-63
2022/08/02 04:03:52;;;;;;;6.07;1.80;;;;;;;20.33;100.00;101160.06;2057928;28;20190;-64
2022/08/02 04:04:52;;;;;;;6.43;1.80;;;;;;;20.30;100.00;101160.25;2063949;28;20197;-64
2022/08/02 04:05:53;;;;;;;6.63;1.70;;;;;;;20.34;100.00;101170.06;2065042;28;20184;-64
2022/08/02 04:06:53;;;;;;;6.80;1.90;;;;;;;20.27;100.00;101164.06;2064501;28;20620;-63
2022/08/02 04:07:54;;;;;;;6.40;2.13;;;;;;;19.72;100.00;101079.44;2058852;28;20594;-64
2022/08/02 04:08:54;;;;;;;4.60;2.33;;;;;;;20.32;100.00;101154.94;2061207;28;20227;-64
2022/08/02 04:09:54;;;;;;;8.57;2.20;;;;;;;20.40;100.00;101167.34;2061208;28;20213;-64
2022/08/02 04:12:14;;;;;;;6.43;2.20;;;;;;;20.44;100.00;101171.53;2061289;28;20189;-63
2022/08/02 04:13:15;;;;;;;10.43;2.23;;;;;;;20.47;100.00;101167.72;2056111;28;20444;-63
2022/08/02 04:14:15;;;;;;;11.87;2.40;;;;;;;20.29;100.00;101145.41;2056661;28;20187;-64
2022/08/02 04:15:16;;;;;;;8.63;1.97;;;;;;;20.51;100.00;101164.69;2056615;28;20183;-64
2022/08/02 04:16:22;;;;;;;3.60;1.70;;;;;;;20.55;100.00;101168.88;2056699;28;20663;-64
2022/08/02 04:17:24;;;;;;;5.73;2.00;;;;;;;20.39;100.00;101134.81;2063662;28;20196;-63
2022/08/02 04:18:31;;;;;;;5.00;2.10;;;;;;;20.62;100.00;101164.91;2055517;28;20456;-64
2022/08/02 04:19:42;;;;;;;5.13;1.83;;;;;;;20.60;100.00;101181.47;2057146;28;20484;-64
2022/08/02 04:20:44;;;;;;;5.53;1.60;;;;;;;20.64;100.00;101173.63;2058388;28;20448;-64
2022/08/02 04:21:47;;;;;;;6.10;2.00;;;;;;;20.33;100.00;101120.66;2061627;28;20480;-64
2022/08/02 04:23:03;;;;;;;6.13;2.00;;;;;;;20.67;100.00;101167.78;2069009;28;20447;-64
2022/08/02 04:24:06;;;;;;;3.63;1.70;;;;;;;20.46;100.00;101142.88;2057324;28;20502;-64
2022/08/02 04:25:09;;;;;;;4.43;1.90;;;;;;;20.29;100.00;101122.91;2055282;28;20452;-64
2022/08/02 04:26:10;;;;;;;4.10;1.63;;;;;;;20.69;100.00;101172.94;2066343;28;20441;-64
2022/08/02 04:27:12;;;;;;;6.90;2.10;;;;;;;20.72;100.00;101181.16;2065138;28;20448;-63
2022/08/02 04:28:15;;;;;;;5.10;1.57;;;;;;;20.74;100.00;101175.84;2065506;28;20443;-63
2022/08/02 04:29:17;;;;;;;6.10;1.80;;;;;;;20.75;100.00;101177.38;2064896;28;20441;-62
2022/08/02 04:30:19;;;;;;;6.37;2.13;;;;;;;20.77;100.00;101177.66;2068178;28;20437;-63
2022/08/02 04:31:20;;;;;;;7.67;1.90;;;;;;;20.38;100.00;101117.16;2070467;28;20514;-62
2022/08/02 04:32:22;;;;;;;8.37;2.00;;;;;;;20.85;100.00;101186.50;2065339;28;20496;-63
2022/08/02 04:33:23;;;;;;;3.53;1.90;;;;;;;20.90;100.00;101192.25;2065639;28;20467;-62
2022/08/02 04:34:24;;;;;;;4.30;1.87;;;;;;;20.92;100.00;101183.28;2058088;28;20540;-62
2022/08/02 04:35:25;;;;;;;8.30;2.07;;;;;;;20.37;100.00;101101.53;2058249;28;20468;-63
2022/08/02 04:36:25;;;;;;;2.90;1.43;;;;;;;20.93;100.00;101177.16;2055926;28;20221;-62
2022/08/02 04:37:26;;;;;;;4.53;1.60;;;;;;;20.60;100.00;101133.63;2065058;28;20675;-62
2022/08/02 04:38:27;;;;;;;2.80;1.40;;;;;;;20.34;100.00;101073.59;2067319;28;20190;-62
2022/08/02 04:39:27;;;;;;;3.47;1.50;;;;;;;20.96;100.00;101175.41;2063862;28;20196;-62
2022/08/02 04:40:28;;;;;;;5.97;1.80;;;;;;;21.04;100.00;101179.38;2067772;28;20194;-62
2022/08/02 04:41:47;;;;;;;4.23;1.67;;;;;;;21.06;100.00;101186.06;2068676;28;20189;-62
2022/08/02 04:42:48;;;;;;;4.07;1.83;;;;;;;21.09;100.00;101179.44;2064762;28;20266;-62
2022/08/02 04:43:48;;;;;;;4.90;1.80;;;;;;;21.05;100.00;101169.66;2066555;28;20444;-63
2022/08/02 04:44:49;;;;;;;4.40;1.67;;;;;;;20.96;100.00;101153.66;2054864;28;20225;-63
2022/08/02 04:45:54;;;;;;;5.60;1.67;;;;;;;21.16;100.00;101190.31;2060059;28;20198;-62
2022/08/02 04:46:55;;;;;;;5.07;2.00;;;;;;;21.18;100.00;101187.00;2062847;28;20453;-62
2022/08/02 04:47:55;;;;;;;4.07;1.57;;;;;;;20.70;100.00;101110.50;2064125;28;20484;-62
2022/08/02 04:48:56;;;;;;;2.17;1.60;;;;;;;21.18;100.00;101184.19;2056928;28;20425;-63
2022/08/02 04:49:56;;;;;;;4.77;1.60;;;;;;;21.25;100.00;101186.59;2053342;28;20252;-62
2022/08/02 04:50:57;;;;;;;6.73;2.33;;;;;;;20.91;100.00;101150.75;2044778;28;20211;-63